createdAt,value
2017-08-22T08:48:31.148Z,11012
2017-08-22T08:49:33.044Z,11800
2017-08-22T08:50:35.133Z,11416
2017-08-22T08:51:36.862Z,11224
2017-08-22T08:52:38.994Z,10348
2017-08-22T08:53:40.888Z,10800
2017-08-22T08:54:42.921Z,11548
2017-08-22T08:55:44.480Z,11760
2017-08-22T08:56:46.056Z,10912
2017-08-22T08:57:47.626Z,12020
2017-08-22T08:58:49.466Z,11920
2017-08-22T08:59:51.391Z,11868
2017-08-22T09:00:52.983Z,11220
2017-08-22T09:01:54.503Z,11488
2017-08-22T09:02:56.098Z,11932
2017-08-22T09:03:57.947Z,12044
2017-08-22T09:04:59.529Z,12184
2017-08-22T09:06:02.844Z,12232
2017-08-22T09:07:04.351Z,12296
2017-08-22T09:08:05.865Z,12344
2017-08-22T09:09:07.452Z,12088
2017-08-22T09:10:09.212Z,12600
2017-08-22T09:11:10.797Z,12792
2017-08-22T09:12:12.236Z,12864
2017-08-22T09:13:14.052Z,12912
2017-08-22T09:14:15.750Z,12952
2017-08-22T09:15:17.269Z,13032
2017-08-22T09:16:19.035Z,12896
2017-08-22T09:17:20.603Z,12844
2017-08-22T09:18:22.405Z,12648
2017-08-22T09:19:23.956Z,12920
2017-08-22T09:20:25.502Z,13540
2017-08-22T09:21:27.253Z,14400
2017-08-22T09:22:28.773Z,13660
2017-08-22T09:23:30.337Z,13708
2017-08-22T09:24:31.934Z,9748
2017-08-22T09:25:33.526Z,8656
2017-08-22T09:26:35.107Z,7532
2017-08-22T09:27:37.220Z,6960
2017-08-22T09:28:38.800Z,6960
2017-08-22T09:29:40.340Z,6436
2017-08-22T09:30:41.954Z,6480
2017-08-22T09:31:43.629Z,6768
2017-08-22T09:32:45.330Z,7160
2017-08-22T09:33:47.208Z,7396
2017-08-22T09:34:48.983Z,7400
2017-08-22T09:35:50.610Z,7724
2017-08-22T09:36:52.347Z,8660
2017-08-22T09:37:54.135Z,9664
2017-08-22T09:38:56.015Z,9828
2017-08-22T09:41:08.588Z,12768
2017-08-22T09:42:10.140Z,12164
2017-08-22T09:43:12.678Z,8428
2017-08-22T09:44:14.392Z,7992
2017-08-22T09:45:16.994Z,7508
2017-08-22T09:46:18.890Z,7392
2017-08-22T09:47:20.738Z,7324
2017-08-22T09:48:22.811Z,7148
2017-08-22T09:49:24.371Z,7036
2017-08-22T09:50:25.948Z,7200
2017-08-22T09:51:27.607Z,8080
2017-08-22T09:52:29.336Z,8880
2017-08-22T09:53:31.089Z,9932
2017-08-22T09:54:32.750Z,12076
2017-08-22T09:55:34.444Z,15648
2017-08-22T09:56:36.225Z,15712
2017-08-22T09:57:37.863Z,15296
2017-08-22T09:58:41.618Z,11056
2017-08-22T09:59:46.498Z,10412
2017-08-22T10:00:49.246Z,12128
2017-08-22T10:01:50.813Z,15008
2017-08-22T10:02:52.580Z,14656
2017-08-22T10:03:54.503Z,13088
2017-08-22T10:04:56.310Z,15168
2017-08-22T10:05:58.288Z,10456
2017-08-22T10:07:01.377Z,10548
2017-08-22T10:08:04.761Z,15584
2017-08-22T10:09:06.389Z,15552
2017-08-22T10:10:08.765Z,11880
2017-08-22T10:11:10.610Z,17472
2017-08-22T10:12:16.222Z,17824
2017-08-22T10:13:18.095Z,18048
2017-08-22T10:14:19.938Z,18464
2017-08-22T10:15:21.816Z,18272
2017-08-22T10:16:23.757Z,18080
2017-08-22T10:17:25.416Z,17184
2017-08-22T10:18:27.256Z,16608
2017-08-22T10:19:28.877Z,12072
2017-08-22T10:20:31.081Z,12752
2017-08-22T10:21:32.634Z,14124
2017-08-22T10:22:34.290Z,17376
2017-08-22T10:23:35.971Z,16864
2017-08-22T10:24:37.829Z,13892
2017-08-22T10:25:39.527Z,13136
2017-08-22T10:26:41.326Z,17312
2017-08-22T10:27:42.998Z,16384
2017-08-22T10:28:44.816Z,16576
2017-08-22T10:29:46.609Z,16608
2017-08-22T10:30:48.560Z,16832
2017-08-22T10:31:50.277Z,16736
2017-08-22T10:32:52.217Z,16576
2017-08-22T10:33:53.776Z,17504
2017-08-22T10:34:55.290Z,18048
2017-08-22T10:35:58.670Z,17888
2017-08-22T10:37:00.898Z,16864
2017-08-22T10:38:02.433Z,18720
2017-08-22T10:39:04.243Z,18624
2017-08-22T10:40:05.778Z,18368
2017-08-22T10:41:07.617Z,17728
2017-08-22T10:42:09.192Z,15072
2017-08-22T10:43:10.750Z,17312
2017-08-22T10:44:12.268Z,18304
2017-08-22T10:45:13.803Z,18400
2017-08-22T10:46:15.341Z,18208
2017-08-22T10:47:16.816Z,15628
2017-08-22T10:48:18.382Z,17920
2017-08-22T10:49:19.879Z,17088
2017-08-22T10:50:21.428Z,17920
2017-08-22T10:51:22.943Z,18336
2017-08-22T10:52:24.489Z,18976
2017-08-22T10:53:26.024Z,19872
2017-08-22T10:54:27.551Z,20544
2017-08-22T10:55:29.037Z,21088
2017-08-22T10:56:30.594Z,21504
2017-08-22T10:57:32.159Z,20480
2017-08-22T10:58:33.772Z,19360
2017-08-22T10:59:35.349Z,14380
2017-08-22T11:00:36.923Z,14348
2017-08-22T11:01:38.570Z,14972
2017-08-22T11:02:40.085Z,14688
2017-08-22T11:03:41.626Z,20864
2017-08-22T11:04:43.171Z,22048
2017-08-22T11:05:44.738Z,17024
2017-08-22T11:06:46.358Z,13744
2017-08-22T11:07:47.921Z,25696
2017-08-22T11:08:49.486Z,14320
2017-08-22T11:09:51.143Z,14116
2017-08-22T11:10:52.683Z,25984
2017-08-22T11:11:54.344Z,33888
2017-08-22T11:12:55.931Z,31136
2017-08-22T11:13:57.477Z,25056
2017-08-22T11:14:59.074Z,12876
2017-08-22T11:16:00.623Z,11076
2017-08-22T11:17:02.246Z,10608
2017-08-22T11:18:03.833Z,13104
2017-08-22T11:19:05.608Z,10804
2017-08-22T11:20:07.186Z,10692
2017-08-22T11:21:08.705Z,10284
2017-08-22T11:22:10.245Z,10580
2017-08-22T11:23:11.790Z,11364
2017-08-22T11:24:13.329Z,13124
2017-08-22T11:25:14.858Z,13784
2017-08-22T11:26:16.507Z,16336
2017-08-22T11:27:18.120Z,28384
2017-08-22T11:28:19.621Z,39456
2017-08-22T11:29:21.290Z,41440
2017-08-22T11:30:22.936Z,20352
2017-08-22T11:31:24.481Z,16896
2017-08-22T11:32:25.983Z,16128
2017-08-22T11:33:27.563Z,14672
2017-08-22T11:34:29.693Z,15252
2017-08-22T11:35:31.289Z,17024
2017-08-22T11:36:33.550Z,33760
2017-08-22T11:37:35.027Z,41952
2017-08-22T11:38:37.014Z,31616
2017-08-22T11:39:38.557Z,33664
2017-08-22T11:40:40.200Z,39200
2017-08-22T11:41:42.256Z,40960
2017-08-22T11:42:43.886Z,39904
2017-08-22T11:43:45.432Z,40448
2017-08-22T11:44:47.059Z,33728
2017-08-22T11:45:49.102Z,15544
2017-08-22T11:46:51.263Z,15488
2017-08-22T11:47:53.271Z,16928
2017-08-22T11:48:55.013Z,42688
2017-08-22T11:49:56.630Z,18176
2017-08-22T11:50:59.248Z,18240
2017-08-22T11:52:01.533Z,43552
2017-08-22T11:53:03.526Z,21280
2017-08-22T11:54:05.179Z,33088
2017-08-22T11:55:06.875Z,25888
2017-08-22T11:56:08.575Z,39136
2017-08-22T11:57:10.167Z,21248
2017-08-22T11:58:11.863Z,37664
2017-08-22T11:59:13.491Z,43392
2017-08-22T12:00:16.161Z,21728
2017-08-22T12:01:18.252Z,35968
2017-08-22T12:02:20.065Z,45376
2017-08-22T12:03:21.738Z,46240
2017-08-22T12:04:23.417Z,46848
2017-08-22T12:05:25.021Z,43744
2017-08-22T12:06:26.940Z,44992
2017-08-22T12:07:29.556Z,43904
2017-08-22T12:08:32.319Z,40896
2017-08-22T12:09:35.604Z,42880
2017-08-22T12:10:37.304Z,24576
2017-08-22T12:11:40.161Z,46240
2017-08-22T12:12:49.320Z,44992
2017-08-22T12:13:51.152Z,45600
2017-08-22T12:14:53.010Z,24768
2017-08-22T12:15:54.717Z,39872
2017-08-22T12:16:56.685Z,14160
2017-08-22T12:17:58.536Z,16544
2017-08-22T12:19:00.954Z,10252
2017-08-22T12:20:02.876Z,9840
2017-08-22T12:21:04.576Z,11036
2017-08-22T12:22:06.209Z,28160
2017-08-22T12:23:07.940Z,14448
2017-08-22T12:24:10.169Z,16308
2017-08-22T12:25:11.779Z,48096
2017-08-22T12:26:13.458Z,49408
2017-08-22T12:27:15.026Z,48992
2017-08-22T12:28:16.755Z,48192
2017-08-22T12:29:18.724Z,44032
2017-08-22T12:30:20.323Z,25152
2017-08-22T12:31:22.400Z,19936
2017-08-22T12:32:24.065Z,17312
2017-08-22T12:33:26.061Z,18304
2017-08-22T12:34:27.912Z,52992
2017-08-22T12:35:29.860Z,53536
2017-08-22T12:36:31.606Z,50304
2017-08-22T12:37:33.412Z,54528
2017-08-22T12:38:35.235Z,56128
2017-08-22T12:39:37.136Z,55264
2017-08-22T12:40:38.994Z,55104
2017-08-22T12:41:40.942Z,54240
2017-08-22T12:42:42.978Z,54592
2017-08-22T12:43:44.884Z,53408
2017-08-22T12:44:46.687Z,18912
2017-08-22T12:45:48.540Z,46112
2017-08-22T12:46:50.406Z,53792
2017-08-22T12:47:52.141Z,16620
2017-08-22T12:48:53.958Z,16844
2017-08-22T12:49:55.721Z,56288
2017-08-22T12:50:57.446Z,53984
2017-08-22T12:51:59.325Z,54784
2017-08-22T12:53:01.141Z,55680
2017-08-22T12:54:02.973Z,47392
2017-08-22T12:55:05.079Z,33888
2017-08-22T12:56:06.839Z,30464
2017-08-22T12:57:08.643Z,30112
2017-08-22T12:58:11.064Z,29792
2017-08-22T12:59:12.937Z,29632
2017-08-22T13:00:14.998Z,29440
2017-08-22T13:01:16.937Z,29632
2017-08-22T13:02:18.767Z,34368
2017-08-22T13:03:20.704Z,47168
2017-08-22T13:04:22.543Z,52992
2017-08-22T13:05:24.328Z,51872
2017-08-22T13:06:26.216Z,48352
2017-08-22T13:07:27.943Z,19136
2017-08-22T13:08:29.775Z,31232
2017-08-22T13:09:31.555Z,47552
2017-08-22T13:10:33.280Z,50304
2017-08-22T13:11:35.338Z,53184
2017-08-22T13:12:37.136Z,53568
2017-08-22T13:13:38.832Z,50464
2017-08-22T13:14:40.687Z,50016
2017-08-22T13:15:42.612Z,50432
2017-08-22T13:16:44.288Z,51456
2017-08-22T13:17:46.143Z,51232
2017-08-22T13:18:48.017Z,27392
2017-08-22T13:19:49.846Z,52160
2017-08-22T13:21:35.349Z,53728
2017-08-22T13:23:21.385Z,55712
2017-08-22T13:25:06.793Z,16928
2017-08-22T13:26:50.706Z,14848
2017-08-22T13:27:53.182Z,13192
2017-08-22T13:28:55.041Z,11612
2017-08-22T13:29:56.681Z,10444
2017-08-22T13:30:58.571Z,9844
2017-08-22T13:32:00.211Z,9900
2017-08-22T13:33:01.967Z,9832
2017-08-22T13:34:03.822Z,9768
2017-08-22T13:35:05.500Z,9152
2017-08-22T13:36:07.244Z,8620
2017-08-22T13:37:08.945Z,8268
2017-08-22T13:38:10.809Z,7824
2017-08-22T13:39:12.748Z,7352
2017-08-22T13:40:14.429Z,7476
2017-08-22T13:41:16.104Z,8576
2017-08-22T13:42:17.865Z,10304
2017-08-22T13:43:19.732Z,38112
2017-08-22T13:44:21.468Z,11548
2017-08-22T13:45:23.298Z,11576
2017-08-22T13:46:24.990Z,11376
2017-08-22T13:47:26.816Z,11640
2017-08-22T13:48:28.730Z,13952
2017-08-22T13:49:30.660Z,50816
2017-08-22T13:50:32.470Z,12764
2017-08-22T13:51:34.263Z,18720
2017-08-22T13:52:36.142Z,28864
2017-08-22T13:53:37.763Z,43232
2017-08-22T13:54:39.563Z,41120
2017-08-22T13:55:41.336Z,13672
2017-08-22T13:56:42.967Z,11888
2017-08-22T13:57:44.742Z,10236
2017-08-22T13:58:46.480Z,9676
2017-08-22T13:59:48.301Z,9652
2017-08-22T14:00:50.191Z,10384
2017-08-22T14:01:55.221Z,10720
2017-08-22T14:02:57.303Z,11340
2017-08-22T14:03:59.176Z,12752
2017-08-22T14:05:00.857Z,21632
2017-08-22T14:06:02.689Z,19936
2017-08-22T14:07:04.547Z,47904
2017-08-22T14:08:06.150Z,48992
2017-08-22T14:09:07.965Z,52576
2017-08-22T14:10:10.118Z,51648
2017-08-22T14:11:12.150Z,51488
2017-08-22T14:12:13.986Z,51712
2017-08-22T14:13:15.756Z,41024
2017-08-22T14:14:17.536Z,48800
2017-08-22T14:15:19.794Z,48512
2017-08-22T14:16:21.530Z,48192
2017-08-22T14:17:23.358Z,20544
2017-08-22T14:18:25.238Z,46048
2017-08-22T14:19:27.169Z,46304
2017-08-22T14:20:29.006Z,15864
2017-08-22T14:21:30.851Z,13824
2017-08-22T14:22:32.505Z,14100
2017-08-22T14:23:34.243Z,15328
2017-08-22T14:24:35.974Z,41248
2017-08-22T14:25:37.772Z,52512
2017-08-22T14:26:39.591Z,47872
2017-08-22T14:27:41.396Z,14560
2017-08-22T14:28:43.111Z,12356
2017-08-22T14:29:44.821Z,14328
2017-08-22T14:30:46.633Z,14508
2017-08-22T14:31:48.322Z,16320
2017-08-22T14:32:50.124Z,45152
2017-08-22T14:33:51.885Z,42272
2017-08-22T14:34:53.637Z,41920
2017-08-22T14:35:55.376Z,47200
2017-08-22T14:36:57.053Z,49728
2017-08-22T14:37:58.823Z,50432
2017-08-22T14:39:00.614Z,50656
2017-08-22T14:40:02.521Z,51648
2017-08-22T14:41:04.331Z,49056
2017-08-22T14:42:06.279Z,48160
2017-08-22T14:43:08.133Z,48832
2017-08-22T14:44:10.227Z,46816
2017-08-22T14:45:11.864Z,42944
2017-08-22T14:46:13.832Z,47040
2017-08-22T14:47:15.626Z,17536
2017-08-22T14:48:17.359Z,48064
2017-08-22T14:49:19.318Z,36768
2017-08-22T14:50:21.060Z,46496
2017-08-22T14:51:22.777Z,44224
2017-08-22T14:52:24.553Z,48192
2017-08-22T14:53:26.292Z,51072
2017-08-22T14:54:28.119Z,49728
2017-08-22T14:55:29.977Z,46464
2017-08-22T14:56:31.718Z,46624
2017-08-22T14:57:33.345Z,44608
2017-08-22T14:58:35.170Z,41888
2017-08-22T14:59:36.973Z,41536
2017-08-22T15:00:38.602Z,43424
2017-08-22T15:01:40.434Z,44448
2017-08-22T15:02:42.280Z,41408
2017-08-22T15:03:44.060Z,40640
2017-08-22T15:04:45.839Z,18272
2017-08-22T15:05:47.670Z,16736
2017-08-22T15:06:49.340Z,33920
2017-08-22T15:07:51.038Z,37280
2017-08-22T15:08:52.866Z,39680
2017-08-22T15:09:54.682Z,35008
2017-08-22T15:10:56.432Z,35040
2017-08-22T15:11:58.262Z,16800
2017-08-22T15:13:00.075Z,13984
2017-08-22T15:14:01.871Z,14008
2017-08-22T15:15:03.620Z,40032
2017-08-22T15:16:05.491Z,41920
2017-08-22T15:17:07.269Z,40576
2017-08-22T15:18:08.948Z,14528
2017-08-22T15:19:10.678Z,13788
2017-08-22T15:20:12.485Z,12652
2017-08-22T15:21:14.228Z,11112
2017-08-22T15:22:15.871Z,10556
2017-08-22T15:23:17.566Z,9136
2017-08-22T15:24:19.456Z,8452
2017-08-22T15:25:21.113Z,14420
2017-08-22T15:26:22.838Z,7000
2017-08-22T15:27:24.571Z,6296
2017-08-22T15:28:26.255Z,5964
2017-08-22T15:29:28.014Z,6036
2017-08-22T15:30:29.811Z,6560
2017-08-22T15:31:31.604Z,7648
2017-08-22T15:32:33.326Z,11268
2017-08-22T15:33:35.205Z,7720
2017-08-22T15:34:36.896Z,7972
2017-08-22T15:35:38.652Z,8556
2017-08-22T15:36:40.422Z,18720
2017-08-22T15:37:42.172Z,32000
2017-08-22T15:38:43.842Z,30944
2017-08-22T15:39:45.580Z,29440
2017-08-22T15:40:47.333Z,27552
2017-08-22T15:41:49.065Z,24448
2017-08-22T15:42:50.792Z,27712
2017-08-22T15:43:52.623Z,24256
2017-08-22T15:44:54.374Z,16032
2017-08-22T15:45:56.329Z,9128
2017-08-22T15:46:58.122Z,23008
2017-08-22T15:48:00.052Z,14816
2017-08-22T15:49:01.867Z,16032
2017-08-22T15:50:03.651Z,10528
2017-08-22T15:51:05.321Z,19424
2017-08-22T15:52:08.208Z,24992
2017-08-22T15:53:10.382Z,25600
2017-08-22T15:54:12.114Z,23456
2017-08-22T15:55:14.097Z,10628
2017-08-22T15:56:16.220Z,9652
2017-08-22T15:57:18.254Z,8884
2017-08-22T15:58:19.959Z,8024
2017-08-22T15:59:21.747Z,7764
2017-08-22T16:00:23.830Z,18880
2017-08-22T16:01:25.770Z,19488
2017-08-22T16:02:27.604Z,13352
2017-08-22T16:03:29.376Z,19008
2017-08-22T16:04:30.963Z,13920
2017-08-22T16:05:33.444Z,11676
2017-08-22T16:06:35.612Z,14176
2017-08-22T16:07:37.531Z,19360
2017-08-22T16:08:39.494Z,20576
2017-08-22T16:09:41.195Z,15488
2017-08-22T16:10:46.278Z,15936
